sensor_id;sensor_type;location;lat;lon;timestamp;temperature;humidity
19522;DHT22;9905;52.126;5.596;2023-03-01T00:00:51;-0.60;99.90
19522;DHT22;9905;52.126;5.596;2023-03-01T00:03:18;-0.60;99.90
19522;DHT22;9905;52.126;5.596;2023-03-01T00:05:45;-0.60;99.90
19522;DHT22;9905;52.126;5.596;2023-03-01T00:08:13;-0.60;99.90
19522;DHT22;9905;52.126;5.596;2023-03-01T00:10:40;-0.60;99.90
19522;DHT22;9905;52.126;5.596;2023-03-01T00:13:06;-0.60;99.90
19522;DHT22;9905;52.126;5.596;2023-03-01T00:15:37;-0.70;99.90
19522;DHT22;9905;52.126;5.596;2023-03-01T00:18:04;-0.70;99.90
19522;DHT22;9905;52.126;5.596;2023-03-01T00:20:30;-0.70;99.90
19522;DHT22;9905;52.126;5.596;2023-03-01T00:22:57;-0.70;99.90
19522;DHT22;9905;52.126;5.596;2023-03-01T00:25:25;-0.80;99.90
19522;DHT22;9905;52.126;5.596;2023-03-01T00:27:52;-0.80;99.90
19522;DHT22;9905;52.126;5.596;2023-03-01T00:30:19;-0.90;99.90
19522;DHT22;9905;52.126;5.596;2023-03-01T00:32:45;-0.90;99.90
19522;DHT22;9905;52.126;5.596;2023-03-01T00:35:12;-1.00;99.90
19522;DHT22;9905;52.126;5.596;2023-03-01T00:37:39;-1.00;99.90
19522;DHT22;9905;52.126;5.596;2023-03-01T00:40:08;-1.10;99.90
19522;DHT22;9905;52.126;5.596;2023-03-01T00:42:37;-1.10;99.90
19522;DHT22;9905;52.126;5.596;2023-03-01T00:45:04;-1.10;99.90
19522;DHT22;9905;52.126;5.596;2023-03-01T00:47:31;-1.10;99.90
19522;DHT22;9905;52.126;5.596;2023-03-01T00:49:58;-1.20;99.90
19522;DHT22;9905;52.126;5.596;2023-03-01T00:52:25;-1.20;99.90
19522;DHT22;9905;52.126;5.596;2023-03-01T00:54:52;-1.20;99.90
19522;DHT22;9905;52.126;5.596;2023-03-01T00:57:19;-1.20;99.90
19522;DHT22;9905;52.126;5.596;2023-03-01T00:59:47;-1.20;99.90
19522;DHT22;9905;52.126;5.596;2023-03-01T01:02:14;-1.20;99.90
19522;DHT22;9905;52.126;5.596;2023-03-01T01:04:40;-1.30;99.90
19522;DHT22;9905;52.126;5.596;2023-03-01T01:07:07;-1.30;99.90
19522;DHT22;9905;52.126;5.596;2023-03-01T01:09:34;-1.30;99.90
19522;DHT22;9905;52.126;5.596;2023-03-01T01:12:01;-1.30;99.90
19522;DHT22;9905;52.126;5.596;2023-03-01T01:14:28;-1.40;99.90
19522;DHT22;9905;52.126;5.596;2023-03-01T01:16:56;-1.40;99.90
19522;DHT22;9905;52.126;5.596;2023-03-01T01:19:23;-1.40;99.90
19522;DHT22;9905;52.126;5.596;2023-03-01T01:21:51;-1.40;99.90
19522;DHT22;9905;52.126;5.596;2023-03-01T01:24:19;-1.40;99.90
19522;DHT22;9905;52.126;5.596;2023-03-01T01:26:46;-1.50;99.90
19522;DHT22;9905;52.126;5.596;2023-03-01T01:29:13;-1.50;99.90
19522;DHT22;9905;52.126;5.596;2023-03-01T01:31:41;-1.60;99.90
19522;DHT22;9905;52.126;5.596;2023-03-01T01:34:16;-1.60;99.90
19522;DHT22;9905;52.126;5.596;2023-03-01T01:36:44;-1.60;99.90
19522;DHT22;9905;52.126;5.596;2023-03-01T01:39:10;-1.60;99.90
19522;DHT22;9905;52.126;5.596;2023-03-01T01:41:40;-1.60;99.90
19522;DHT22;9905;52.126;5.596;2023-03-01T01:44:17;-1.70;99.90
19522;DHT22;9905;52.126;5.596;2023-03-01T01:46:47;-1.70;99.90
19522;DHT22;9905;52.126;5.596;2023-03-01T01:49:25;-1.70;99.90
19522;DHT22;9905;52.126;5.596;2023-03-01T01:51:57;-1.70;99.90
19522;DHT22;9905;52.126;5.596;2023-03-01T01:54:29;-1.80;99.90
19522;DHT22;9905;52.126;5.596;2023-03-01T01:57:01;-1.80;99.90
19522;DHT22;9905;52.126;5.596;2023-03-01T01:59:31;-1.80;99.90
19522;DHT22;9905;52.126;5.596;2023-03-01T02:02:00;-1.80;99.90
19522;DHT22;9905;52.126;5.596;2023-03-01T02:04:30;-1.80;99.90
19522;DHT22;9905;52.126;5.596;2023-03-01T02:07:02;-1.90;99.90
19522;DHT22;9905;52.126;5.596;2023-03-01T02:09:30;-1.90;99.90
19522;DHT22;9905;52.126;5.596;2023-03-01T02:11:58;-1.90;99.90
19522;DHT22;9905;52.126;5.596;2023-03-01T02:14:25;-1.90;99.90
19522;DHT22;9905;52.126;5.596;2023-03-01T02:16:52;-1.90;99.90
19522;DHT22;9905;52.126;5.596;2023-03-01T02:19:30;-2.00;99.90
19522;DHT22;9905;52.126;5.596;2023-03-01T02:22:02;-1.90;99.90
19522;DHT22;9905;52.126;5.596;2023-03-01T02:24:40;-1.90;99.90
19522;DHT22;9905;52.126;5.596;2023-03-01T02:27:13;-1.80;99.90
19522;DHT22;9905;52.126;5.596;2023-03-01T02:29:41;-1.80;99.90
19522;DHT22;9905;52.126;5.596;2023-03-01T02:32:11;-1.90;99.90
19522;DHT22;9905;52.126;5.596;2023-03-01T02:34:38;-1.90;99.90
19522;DHT22;9905;52.126;5.596;2023-03-01T02:37:08;-1.90;99.90
19522;DHT22;9905;52.126;5.596;2023-03-01T02:39:41;-2.00;99.90
19522;DHT22;9905;52.126;5.596;2023-03-01T02:42:12;-2.00;99.90
19522;DHT22;9905;52.126;5.596;2023-03-01T02:44:40;-2.00;99.90
19522;DHT22;9905;52.126;5.596;2023-03-01T02:47:07;-2.10;99.90
19522;DHT22;9905;52.126;5.596;2023-03-01T02:49:36;-2.10;99.90
19522;DHT22;9905;52.126;5.596;2023-03-01T02:52:30;-2.10;99.90
19522;DHT22;9905;52.126;5.596;2023-03-01T02:55:02;-2.10;99.90
19522;DHT22;9905;52.126;5.596;2023-03-01T02:57:32;-2.20;99.90
19522;DHT22;9905;52.126;5.596;2023-03-01T03:00:05;-2.20;99.90
19522;DHT22;9905;52.126;5.596;2023-03-01T03:02:34;-2.20;99.90
19522;DHT22;9905;52.126;5.596;2023-03-01T03:05:06;-2.20;99.90
19522;DHT22;9905;52.126;5.596;2023-03-01T03:07:34;-2.20;99.90
19522;DHT22;9905;52.126;5.596;2023-03-01T03:10:03;-2.20;99.90
19522;DHT22;9905;52.126;5.596;2023-03-01T03:12:30;-2.20;99.90
19522;DHT22;9905;52.126;5.596;2023-03-01T03:14:56;-2.30;99.90
19522;DHT22;9905;52.126;5.596;2023-03-01T03:17:25;-2.30;99.90
19522;DHT22;9905;52.126;5.596;2023-03-01T03:19:52;-2.30;99.90
19522;DHT22;9905;52.126;5.596;2023-03-01T03:22:18;-2.30;99.90
19522;DHT22;9905;52.126;5.596;2023-03-01T03:24:45;-2.30;99.90
19522;DHT22;9905;52.126;5.596;2023-03-01T03:27:12;-2.30;99.90
19522;DHT22;9905;52.126;5.596;2023-03-01T03:29:38;-2.30;99.90
19522;DHT22;9905;52.126;5.596;2023-03-01T03:32:05;-2.30;99.90
19522;DHT22;9905;52.126;5.596;2023-03-01T03:34:33;-2.40;99.90
19522;DHT22;9905;52.126;5.596;2023-03-01T03:37:00;-2.40;99.90
19522;DHT22;9905;52.126;5.596;2023-03-01T03:39:27;-2.30;99.90
19522;DHT22;9905;52.126;5.596;2023-03-01T03:41:54;-2.30;99.90
19522;DHT22;9905;52.126;5.596;2023-03-01T03:44:21;-2.30;99.90
19522;DHT22;9905;52.126;5.596;2023-03-01T03:46:48;-2.30;99.90
19522;DHT22;9905;52.126;5.596;2023-03-01T03:49:14;-2.30;99.90
19522;DHT22;9905;52.126;5.596;2023-03-01T03:51:45;-2.30;99.90
19522;DHT22;9905;52.126;5.596;2023-03-01T03:54:12;-2.30;99.90
19522;DHT22;9905;52.126;5.596;2023-03-01T03:56:38;-2.30;99.90
19522;DHT22;9905;52.126;5.596;2023-03-01T03:59:05;-2.40;99.90
19522;DHT22;9905;52.126;5.596;2023-03-01T04:01:32;-2.30;99.90
19522;DHT22;9905;52.126;5.596;2023-03-01T04:03:59;-2.30;99.90
19522;DHT22;9905;52.126;5.596;2023-03-01T04:06:29;-2.40;99.90
19522;DHT22;9905;52.126;5.596;2023-03-01T04:08:57;-2.40;99.90
19522;DHT22;9905;52.126;5.596;2023-03-01T04:11:28;-2.40;99.90
19522;DHT22;9905;52.126;5.596;2023-03-01T04:13:56;-2.40;99.90
19522;DHT22;9905;52.126;5.596;2023-03-01T04:16:23;-2.40;99.90
19522;DHT22;9905;52.126;5.596;2023-03-01T04:18:50;-2.50;99.90
19522;DHT22;9905;52.126;5.596;2023-03-01T04:21:17;-2.50;99.90
19522;DHT22;9905;52.126;5.596;2023-03-01T04:23:45;-2.50;99.90
19522;DHT22;9905;52.126;5.596;2023-03-01T04:26:13;-2.60;99.90
19522;DHT22;9905;52.126;5.596;2023-03-01T04:28:41;-2.60;99.90
19522;DHT22;9905;52.126;5.596;2023-03-01T04:31:13;-2.60;99.90
19522;DHT22;9905;52.126;5.596;2023-03-01T04:33:42;-2.60;99.90
19522;DHT22;9905;52.126;5.596;2023-03-01T04:36:11;-2.60;99.90
19522;DHT22;9905;52.126;5.596;2023-03-01T04:38:38;-2.60;99.90
19522;DHT22;9905;52.126;5.596;2023-03-01T04:41:06;-2.60;99.90
19522;DHT22;9905;52.126;5.596;2023-03-01T04:43:35;-2.70;99.90
19522;DHT22;9905;52.126;5.596;2023-03-01T04:46:02;-2.70;99.90
19522;DHT22;9905;52.126;5.596;2023-03-01T04:48:30;-2.70;99.90
19522;DHT22;9905;52.126;5.596;2023-03-01T04:50:58;-2.80;99.90
19522;DHT22;9905;52.126;5.596;2023-03-01T04:53:25;-2.80;99.90
19522;DHT22;9905;52.126;5.596;2023-03-01T04:55:53;-2.80;99.90
19522;DHT22;9905;52.126;5.596;2023-03-01T04:58:20;-2.80;99.90
19522;DHT22;9905;52.126;5.596;2023-03-01T05:00:48;-2.90;99.90
19522;DHT22;9905;52.126;5.596;2023-03-01T05:03:15;-2.90;99.90
19522;DHT22;9905;52.126;5.596;2023-03-01T05:05:44;-2.90;99.90
19522;DHT22;9905;52.126;5.596;2023-03-01T05:08:12;-2.90;99.90
19522;DHT22;9905;52.126;5.596;2023-03-01T05:10:44;-2.90;99.90
19522;DHT22;9905;52.126;5.596;2023-03-01T05:13:13;-2.90;99.90
19522;DHT22;9905;52.126;5.596;2023-03-01T05:15:40;-2.90;99.90
19522;DHT22;9905;52.126;5.596;2023-03-01T05:18:09;-2.90;99.90
19522;DHT22;9905;52.126;5.596;2023-03-01T05:20:37;-2.90;99.90
19522;DHT22;9905;52.126;5.596;2023-03-01T05:23:04;-2.90;99.90
19522;DHT22;9905;52.126;5.596;2023-03-01T05:25:32;-2.90;99.90
19522;DHT22;9905;52.126;5.596;2023-03-01T05:28:00;-2.90;99.90
19522;DHT22;9905;52.126;5.596;2023-03-01T05:30:30;-2.90;99.90
19522;DHT22;9905;52.126;5.596;2023-03-01T05:32:56;-3.00;99.90
19522;DHT22;9905;52.126;5.596;2023-03-01T05:35:25;-3.00;99.90
19522;DHT22;9905;52.126;5.596;2023-03-01T05:37:52;-3.00;99.90
19522;DHT22;9905;52.126;5.596;2023-03-01T05:40:20;-3.00;99.90
19522;DHT22;9905;52.126;5.596;2023-03-01T05:42:49;-3.10;99.90
19522;DHT22;9905;52.126;5.596;2023-03-01T05:45:17;-3.10;99.90
19522;DHT22;9905;52.126;5.596;2023-03-01T05:47:45;-3.10;99.90
19522;DHT22;9905;52.126;5.596;2023-03-01T05:50:14;-3.10;99.90
19522;DHT22;9905;52.126;5.596;2023-03-01T05:52:46;-3.20;99.90
19522;DHT22;9905;52.126;5.596;2023-03-01T05:55:14;-3.20;99.90
19522;DHT22;9905;52.126;5.596;2023-03-01T05:57:41;-3.20;99.90
19522;DHT22;9905;52.126;5.596;2023-03-01T06:00:09;-3.20;99.90
19522;DHT22;9905;52.126;5.596;2023-03-01T06:02:36;-3.30;99.90
19522;DHT22;9905;52.126;5.596;2023-03-01T06:05:03;-3.20;99.90
19522;DHT22;9905;52.126;5.596;2023-03-01T06:07:31;-3.30;99.90
19522;DHT22;9905;52.126;5.596;2023-03-01T06:09:59;-3.20;99.90
19522;DHT22;9905;52.126;5.596;2023-03-01T06:12:26;-3.20;99.90
19522;DHT22;9905;52.126;5.596;2023-03-01T06:14:52;-3.20;99.90
19522;DHT22;9905;52.126;5.596;2023-03-01T06:17:19;-3.10;99.90
19522;DHT22;9905;52.126;5.596;2023-03-01T06:19:46;-3.10;99.90
19522;DHT22;9905;52.126;5.596;2023-03-01T06:22:13;-3.10;99.90
19522;DHT22;9905;52.126;5.596;2023-03-01T06:24:40;-3.10;99.90
19522;DHT22;9905;52.126;5.596;2023-03-01T06:27:08;-3.10;99.90
19522;DHT22;9905;52.126;5.596;2023-03-01T06:29:35;-3.20;99.90
19522;DHT22;9905;52.126;5.596;2023-03-01T06:32:02;-3.20;99.90
19522;DHT22;9905;52.126;5.596;2023-03-01T06:34:29;-3.10;99.90
19522;DHT22;9905;52.126;5.596;2023-03-01T06:36:56;-3.20;99.90
19522;DHT22;9905;52.126;5.596;2023-03-01T06:39:23;-3.20;99.90
19522;DHT22;9905;52.126;5.596;2023-03-01T06:41:50;-3.20;99.90
19522;DHT22;9905;52.126;5.596;2023-03-01T06:44:18;-3.20;99.90
19522;DHT22;9905;52.126;5.596;2023-03-01T06:46:44;-3.30;99.90
19522;DHT22;9905;52.126;5.596;2023-03-01T06:49:11;-3.20;99.90
19522;DHT22;9905;52.126;5.596;2023-03-01T06:51:38;-3.20;99.90
19522;DHT22;9905;52.126;5.596;2023-03-01T06:54:05;-3.20;99.90
19522;DHT22;9905;52.126;5.596;2023-03-01T06:56:32;-3.30;99.90
19522;DHT22;9905;52.126;5.596;2023-03-01T06:58:59;-3.20;99.90
19522;DHT22;9905;52.126;5.596;2023-03-01T07:01:27;-3.20;99.90
19522;DHT22;9905;52.126;5.596;2023-03-01T07:03:54;-3.20;99.90
19522;DHT22;9905;52.126;5.596;2023-03-01T07:06:21;-3.30;99.90
19522;DHT22;9905;52.126;5.596;2023-03-01T07:08:48;-3.30;99.90
19522;DHT22;9905;52.126;5.596;2023-03-01T07:11:15;-3.20;99.90
19522;DHT22;9905;52.126;5.596;2023-03-01T07:13:42;-3.20;99.90
19522;DHT22;9905;52.126;5.596;2023-03-01T07:16:09;-3.20;99.90
19522;DHT22;9905;52.126;5.596;2023-03-01T07:18:37;-3.20;99.90
19522;DHT22;9905;52.126;5.596;2023-03-01T07:21:05;-3.20;99.90
19522;DHT22;9905;52.126;5.596;2023-03-01T07:23:32;-3.10;99.90
19522;DHT22;9905;52.126;5.596;2023-03-01T07:25:58;-3.10;99.90
19522;DHT22;9905;52.126;5.596;2023-03-01T07:28:26;-3.00;99.90
19522;DHT22;9905;52.126;5.596;2023-03-01T07:30:53;-2.90;99.90
19522;DHT22;9905;52.126;5.596;2023-03-01T07:33:20;-2.70;99.90
19522;DHT22;9905;52.126;5.596;2023-03-01T07:35:55;-2.60;99.90
19522;DHT22;9905;52.126;5.596;2023-03-01T07:38:23;-2.50;99.90
19522;DHT22;9905;52.126;5.596;2023-03-01T07:40:49;-2.40;99.90
19522;DHT22;9905;52.126;5.596;2023-03-01T07:43:16;-2.30;99.90
19522;DHT22;9905;52.126;5.596;2023-03-01T07:45:43;-2.20;99.90
19522;DHT22;9905;52.126;5.596;2023-03-01T07:48:10;-2.20;99.90
19522;DHT22;9905;52.126;5.596;2023-03-01T07:50:37;-2.10;99.90
19522;DHT22;9905;52.126;5.596;2023-03-01T07:53:05;-2.10;99.90
19522;DHT22;9905;52.126;5.596;2023-03-01T07:55:31;-2.00;99.90
19522;DHT22;9905;52.126;5.596;2023-03-01T07:57:58;-1.80;99.90
19522;DHT22;9905;52.126;5.596;2023-03-01T08:00:25;-1.70;99.90
19522;DHT22;9905;52.126;5.596;2023-03-01T08:02:52;-1.60;99.90
19522;DHT22;9905;52.126;5.596;2023-03-01T08:05:19;-1.50;99.90
19522;DHT22;9905;52.126;5.596;2023-03-01T08:07:47;-1.40;99.90
19522;DHT22;9905;52.126;5.596;2023-03-01T08:10:16;-1.30;99.90
19522;DHT22;9905;52.126;5.596;2023-03-01T08:12:42;-1.20;99.90
19522;DHT22;9905;52.126;5.596;2023-03-01T08:15:10;-1.10;99.90
19522;DHT22;9905;52.126;5.596;2023-03-01T08:17:37;-0.90;99.90
19522;DHT22;9905;52.126;5.596;2023-03-01T08:20:04;-0.70;99.90
19522;DHT22;9905;52.126;5.596;2023-03-01T08:22:32;-0.50;99.90
19522;DHT22;9905;52.126;5.596;2023-03-01T08:24:59;-0.40;99.90
19522;DHT22;9905;52.126;5.596;2023-03-01T08:27:27;-0.20;99.90
19522;DHT22;9905;52.126;5.596;2023-03-01T08:29:54;-0.10;99.90
19522;DHT22;9905;52.126;5.596;2023-03-01T08:32:21;0.10;99.90
19522;DHT22;9905;52.126;5.596;2023-03-01T08:34:47;0.20;99.90
19522;DHT22;9905;52.126;5.596;2023-03-01T08:37:14;0.30;99.90
19522;DHT22;9905;52.126;5.596;2023-03-01T08:39:41;0.40;99.90
19522;DHT22;9905;52.126;5.596;2023-03-01T08:42:08;0.50;99.90
19522;DHT22;9905;52.126;5.596;2023-03-01T08:44:36;0.60;99.90
19522;DHT22;9905;52.126;5.596;2023-03-01T08:47:02;0.70;99.90
19522;DHT22;9905;52.126;5.596;2023-03-01T08:49:30;0.80;99.90
19522;DHT22;9905;52.126;5.596;2023-03-01T08:51:58;0.90;99.90
19522;DHT22;9905;52.126;5.596;2023-03-01T08:54:24;1.00;99.90
19522;DHT22;9905;52.126;5.596;2023-03-01T08:56:51;1.20;99.90
19522;DHT22;9905;52.126;5.596;2023-03-01T08:59:18;1.30;99.90
19522;DHT22;9905;52.126;5.596;2023-03-01T09:01:46;1.50;99.90
19522;DHT22;9905;52.126;5.596;2023-03-01T09:04:14;1.60;99.90
19522;DHT22;9905;52.126;5.596;2023-03-01T09:06:41;1.80;99.90
19522;DHT22;9905;52.126;5.596;2023-03-01T09:09:13;1.90;99.90
19522;DHT22;9905;52.126;5.596;2023-03-01T09:11:41;2.10;99.90
19522;DHT22;9905;52.126;5.596;2023-03-01T09:14:08;2.20;99.90
19522;DHT22;9905;52.126;5.596;2023-03-01T09:16:35;2.40;99.90
19522;DHT22;9905;52.126;5.596;2023-03-01T09:19:03;2.60;99.90
19522;DHT22;9905;52.126;5.596;2023-03-01T09:21:30;2.70;99.90
19522;DHT22;9905;52.126;5.596;2023-03-01T09:23:58;2.90;99.90
19522;DHT22;9905;52.126;5.596;2023-03-01T09:26:25;3.00;99.90
19522;DHT22;9905;52.126;5.596;2023-03-01T09:28:53;3.20;99.90
19522;DHT22;9905;52.126;5.596;2023-03-01T09:31:22;3.40;99.90
19522;DHT22;9905;52.126;5.596;2023-03-01T09:33:51;3.50;99.90
19522;DHT22;9905;52.126;5.596;2023-03-01T09:36:21;3.70;99.90
19522;DHT22;9905;52.126;5.596;2023-03-01T09:38:49;3.80;99.90
19522;DHT22;9905;52.126;5.596;2023-03-01T09:41:30;3.80;99.90
19522;DHT22;9905;52.126;5.596;2023-03-01T09:44:10;4.00;99.90
19522;DHT22;9905;52.126;5.596;2023-03-01T09:46:41;4.10;99.90
19522;DHT22;9905;52.126;5.596;2023-03-01T09:49:12;4.20;99.90
19522;DHT22;9905;52.126;5.596;2023-03-01T09:51:52;4.40;99.90
19522;DHT22;9905;52.126;5.596;2023-03-01T09:54:20;4.50;99.90
19522;DHT22;9905;52.126;5.596;2023-03-01T09:56:57;4.60;99.90
19522;DHT22;9905;52.126;5.596;2023-03-01T09:59:29;4.60;99.90
19522;DHT22;9905;52.126;5.596;2023-03-01T10:02:00;4.70;99.90
19522;DHT22;9905;52.126;5.596;2023-03-01T10:04:41;4.90;99.90
19522;DHT22;9905;52.126;5.596;2023-03-01T10:07:26;5.10;99.90
19522;DHT22;9905;52.126;5.596;2023-03-01T10:09:54;5.10;99.90
19522;DHT22;9905;52.126;5.596;2023-03-01T10:12:26;5.20;99.90
19522;DHT22;9905;52.126;5.596;2023-03-01T10:14:58;5.20;99.90
19522;DHT22;9905;52.126;5.596;2023-03-01T10:17:32;5.20;99.90
19522;DHT22;9905;52.126;5.596;2023-03-01T10:20:21;5.30;99.90
19522;DHT22;9905;52.126;5.596;2023-03-01T10:22:50;5.40;99.90
19522;DHT22;9905;52.126;5.596;2023-03-01T10:25:33;5.50;99.90
19522;DHT22;9905;52.126;5.596;2023-03-01T10:28:07;5.60;99.90
19522;DHT22;9905;52.126;5.596;2023-03-01T10:30:38;5.70;99.90
19522;DHT22;9905;52.126;5.596;2023-03-01T10:33:15;5.80;99.90
19522;DHT22;9905;52.126;5.596;2023-03-01T10:35:43;5.90;99.90
19522;DHT22;9905;52.126;5.596;2023-03-01T10:38:13;5.90;99.90
19522;DHT22;9905;52.126;5.596;2023-03-01T10:40:50;6.00;99.90
19522;DHT22;9905;52.126;5.596;2023-03-01T10:43:18;6.10;99.90
19522;DHT22;9905;52.126;5.596;2023-03-01T10:45:45;6.20;99.90
19522;DHT22;9905;52.126;5.596;2023-03-01T10:48:13;6.20;99.90
19522;DHT22;9905;52.126;5.596;2023-03-01T10:50:43;6.30;99.90
19522;DHT22;9905;52.126;5.596;2023-03-01T10:53:24;6.40;99.90
19522;DHT22;9905;52.126;5.596;2023-03-01T10:56:01;6.50;99.90
19522;DHT22;9905;52.126;5.596;2023-03-01T10:58:29;6.60;99.90
19522;DHT22;9905;52.126;5.596;2023-03-01T11:00:58;6.70;99.90
19522;DHT22;9905;52.126;5.596;2023-03-01T11:03:27;6.80;99.90
19522;DHT22;9905;52.126;5.596;2023-03-01T11:06:00;6.90;99.90
19522;DHT22;9905;52.126;5.596;2023-03-01T11:08:32;6.90;99.90
19522;DHT22;9905;52.126;5.596;2023-03-01T11:11:14;6.90;99.90
19522;DHT22;9905;52.126;5.596;2023-03-01T11:13:55;6.90;99.90
19522;DHT22;9905;52.126;5.596;2023-03-01T11:16:28;7.00;99.90
19522;DHT22;9905;52.126;5.596;2023-03-01T11:18:57;7.10;99.90
19522;DHT22;9905;52.126;5.596;2023-03-01T11:21:25;7.20;99.90
19522;DHT22;9905;52.126;5.596;2023-03-01T11:23:57;7.20;99.90
19522;DHT22;9905;52.126;5.596;2023-03-01T11:26:25;7.30;99.90
19522;DHT22;9905;52.126;5.596;2023-03-01T11:28:56;7.40;99.90
19522;DHT22;9905;52.126;5.596;2023-03-01T11:31:25;7.30;99.90
19522;DHT22;9905;52.126;5.596;2023-03-01T11:33:57;7.30;99.90
19522;DHT22;9905;52.126;5.596;2023-03-01T11:36:30;7.40;99.90
19522;DHT22;9905;52.126;5.596;2023-03-01T11:39:07;7.50;99.90
19522;DHT22;9905;52.126;5.596;2023-03-01T11:41:39;7.60;99.90
19522;DHT22;9905;52.126;5.596;2023-03-01T11:44:14;7.60;99.90
19522;DHT22;9905;52.126;5.596;2023-03-01T11:47:15;7.70;99.90
19522;DHT22;9905;52.126;5.596;2023-03-01T11:49:58;7.80;99.90
19522;DHT22;9905;52.126;5.596;2023-03-01T11:52:36;7.90;99.90
19522;DHT22;9905;52.126;5.596;2023-03-01T11:55:30;7.90;99.90
19522;DHT22;9905;52.126;5.596;2023-03-01T11:58:14;7.90;99.90
19522;DHT22;9905;52.126;5.596;2023-03-01T12:01:00;8.00;99.90
19522;DHT22;9905;52.126;5.596;2023-03-01T12:03:37;8.10;99.90
19522;DHT22;9905;52.126;5.596;2023-03-01T12:06:27;8.20;99.90
19522;DHT22;9905;52.126;5.596;2023-03-01T12:09:06;8.20;99.90
19522;DHT22;9905;52.126;5.596;2023-03-01T12:11:51;8.20;99.90
19522;DHT22;9905;52.126;5.596;2023-03-01T12:14:32;8.30;99.90
19522;DHT22;9905;52.126;5.596;2023-03-01T12:20:18;8.40;99.90
19522;DHT22;9905;52.126;5.596;2023-03-01T12:22:59;8.40;99.90
19522;DHT22;9905;52.126;5.596;2023-03-01T12:25:35;8.40;99.90
19522;DHT22;9905;52.126;5.596;2023-03-01T12:31:35;8.40;99.90
19522;DHT22;9905;52.126;5.596;2023-03-01T12:34:20;8.50;99.90
19522;DHT22;9905;52.126;5.596;2023-03-01T12:36:58;8.40;99.90
19522;DHT22;9905;52.126;5.596;2023-03-01T12:39:39;8.50;99.90
19522;DHT22;9905;52.126;5.596;2023-03-01T12:42:14;8.50;99.90
19522;DHT22;9905;52.126;5.596;2023-03-01T12:44:57;8.50;99.90
19522;DHT22;9905;52.126;5.596;2023-03-01T12:47:39;8.50;99.90
19522;DHT22;9905;52.126;5.596;2023-03-01T12:50:15;8.60;99.90
19522;DHT22;9905;52.126;5.596;2023-03-01T12:52:47;8.50;99.90
19522;DHT22;9905;52.126;5.596;2023-03-01T12:55:26;8.70;99.90
19522;DHT22;9905;52.126;5.596;2023-03-01T12:58:04;8.80;99.90
19522;DHT22;9905;52.126;5.596;2023-03-01T13:00:40;8.90;99.90
19522;DHT22;9905;52.126;5.596;2023-03-01T13:03:18;9.00;99.90
19522;DHT22;9905;52.126;5.596;2023-03-01T13:05:59;9.00;99.90
19522;DHT22;9905;52.126;5.596;2023-03-01T13:08:34;9.00;99.90
19522;DHT22;9905;52.126;5.596;2023-03-01T13:11:05;9.00;99.90
19522;DHT22;9905;52.126;5.596;2023-03-01T13:13:32;9.10;99.90
19522;DHT22;9905;52.126;5.596;2023-03-01T13:16:20;9.20;99.90
19522;DHT22;9905;52.126;5.596;2023-03-01T13:18:47;9.30;99.90
19522;DHT22;9905;52.126;5.596;2023-03-01T13:21:29;9.30;99.90
19522;DHT22;9905;52.126;5.596;2023-03-01T13:23:56;9.30;99.90
19522;DHT22;9905;52.126;5.596;2023-03-01T13:26:23;9.30;99.90
19522;DHT22;9905;52.126;5.596;2023-03-01T13:28:52;9.30;99.90
19522;DHT22;9905;52.126;5.596;2023-03-01T13:34:44;9.40;99.90
19522;DHT22;9905;52.126;5.596;2023-03-01T13:37:20;9.40;99.90
19522;DHT22;9905;52.126;5.596;2023-03-01T13:39:47;9.40;99.90
19522;DHT22;9905;52.126;5.596;2023-03-01T13:42:36;9.40;99.90
19522;DHT22;9905;52.126;5.596;2023-03-01T13:47:59;9.40;99.90
19522;DHT22;9905;52.126;5.596;2023-03-01T13:50:33;9.40;99.90
19522;DHT22;9905;52.126;5.596;2023-03-01T13:53:05;9.40;99.90
19522;DHT22;9905;52.126;5.596;2023-03-01T13:55:37;9.50;99.90
19522;DHT22;9905;52.126;5.596;2023-03-01T13:58:19;9.50;99.90
19522;DHT22;9905;52.126;5.596;2023-03-01T14:00:47;9.60;99.90
19522;DHT22;9905;52.126;5.596;2023-03-01T14:03:15;9.50;99.90
19522;DHT22;9905;52.126;5.596;2023-03-01T14:05:59;9.50;99.90
19522;DHT22;9905;52.126;5.596;2023-03-01T14:08:27;9.50;99.90
19522;DHT22;9905;52.126;5.596;2023-03-01T14:11:05;9.60;99.90
19522;DHT22;9905;52.126;5.596;2023-03-01T14:13:51;9.60;99.90
19522;DHT22;9905;52.126;5.596;2023-03-01T14:16:32;9.60;99.90
19522;DHT22;9905;52.126;5.596;2023-03-01T14:19:14;9.60;99.90
19522;DHT22;9905;52.126;5.596;2023-03-01T14:21:44;9.50;99.90
19522;DHT22;9905;52.126;5.596;2023-03-01T14:24:18;9.50;99.90
19522;DHT22;9905;52.126;5.596;2023-03-01T14:26:45;9.60;99.90
19522;DHT22;9905;52.126;5.596;2023-03-01T14:29:33;9.60;99.90
19522;DHT22;9905;52.126;5.596;2023-03-01T14:32:09;9.60;99.90
19522;DHT22;9905;52.126;5.596;2023-03-01T14:34:36;9.70;99.90
19522;DHT22;9905;52.126;5.596;2023-03-01T14:37:18;9.60;99.90
19522;DHT22;9905;52.126;5.596;2023-03-01T14:39:46;9.70;99.90
19522;DHT22;9905;52.126;5.596;2023-03-01T14:42:13;9.60;99.90
19522;DHT22;9905;52.126;5.596;2023-03-01T14:44:43;9.60;99.90
19522;DHT22;9905;52.126;5.596;2023-03-01T14:47:12;9.60;99.90
19522;DHT22;9905;52.126;5.596;2023-03-01T14:49:41;9.60;99.90
19522;DHT22;9905;52.126;5.596;2023-03-01T14:52:18;9.60;99.90
19522;DHT22;9905;52.126;5.596;2023-03-01T14:54:48;9.60;99.90
19522;DHT22;9905;52.126;5.596;2023-03-01T14:57:16;9.50;99.90
19522;DHT22;9905;52.126;5.596;2023-03-01T14:59:44;9.50;99.90
19522;DHT22;9905;52.126;5.596;2023-03-01T15:02:14;9.40;99.90
19522;DHT22;9905;52.126;5.596;2023-03-01T15:04:43;9.40;99.90
19522;DHT22;9905;52.126;5.596;2023-03-01T15:07:12;9.30;99.90
19522;DHT22;9905;52.126;5.596;2023-03-01T15:09:41;9.20;99.90
19522;DHT22;9905;52.126;5.596;2023-03-01T15:12:37;9.20;99.90
19522;DHT22;9905;52.126;5.596;2023-03-01T15:15:33;9.20;99.90
19522;DHT22;9905;52.126;5.596;2023-03-01T15:18:02;9.40;99.90
19522;DHT22;9905;52.126;5.596;2023-03-01T15:20:30;9.30;99.90
19522;DHT22;9905;52.126;5.596;2023-03-01T15:23:01;9.20;99.90
19522;DHT22;9905;52.126;5.596;2023-03-01T15:25:31;9.20;99.90
19522;DHT22;9905;52.126;5.596;2023-03-01T15:28:00;9.20;99.90
19522;DHT22;9905;52.126;5.596;2023-03-01T15:30:30;9.20;99.90
19522;DHT22;9905;52.126;5.596;2023-03-01T15:33:20;9.20;99.90
19522;DHT22;9905;52.126;5.596;2023-03-01T15:35:48;9.10;99.90
19522;DHT22;9905;52.126;5.596;2023-03-01T15:38:36;9.10;99.90
19522;DHT22;9905;52.126;5.596;2023-03-01T15:41:22;9.10;99.90
19522;DHT22;9905;52.126;5.596;2023-03-01T15:43:49;9.00;99.90
19522;DHT22;9905;52.126;5.596;2023-03-01T15:46:22;8.90;99.90
19522;DHT22;9905;52.126;5.596;2023-03-01T15:48:52;8.90;99.90
19522;DHT22;9905;52.126;5.596;2023-03-01T15:51:26;8.90;99.90
19522;DHT22;9905;52.126;5.596;2023-03-01T15:53:54;8.90;99.90
19522;DHT22;9905;52.126;5.596;2023-03-01T15:56:22;8.90;99.90
19522;DHT22;9905;52.126;5.596;2023-03-01T15:58:49;8.80;99.90
19522;DHT22;9905;52.126;5.596;2023-03-01T16:01:17;8.70;99.90
19522;DHT22;9905;52.126;5.596;2023-03-01T16:03:44;8.70;99.90
19522;DHT22;9905;52.126;5.596;2023-03-01T16:06:12;8.60;99.90
19522;DHT22;9905;52.126;5.596;2023-03-01T16:08:40;8.50;99.90
19522;DHT22;9905;52.126;5.596;2023-03-01T16:11:14;8.50;99.90
19522;DHT22;9905;52.126;5.596;2023-03-01T16:13:42;8.50;99.90
19522;DHT22;9905;52.126;5.596;2023-03-01T16:16:10;8.50;99.90
19522;DHT22;9905;52.126;5.596;2023-03-01T16:18:40;8.50;99.90
19522;DHT22;9905;52.126;5.596;2023-03-01T16:21:08;8.40;99.90
19522;DHT22;9905;52.126;5.596;2023-03-01T16:23:37;8.40;99.90
19522;DHT22;9905;52.126;5.596;2023-03-01T16:26:03;8.30;99.90